Time;durP1;ratioP1;P1;durP2;ratioP2;P2;SDS_P1;SDS_P2;PMS_P1;PMS_P2;Temp;Humidity;BMP_temperature;BMP_pressure;BME280_temperature;BME280_humidity;BME280_pressure;Samples;Min_cycle;Max_cycle;Signal;HPM_P1;HPM_P2
2021/05/25 00:01:08;;;;;;;2.70;2.00;;;9.20;99.90;;;;;;6309353;22;20439;-61
2021/05/25 00:03:35;;;;;;;2.43;2.10;;;9.30;99.90;;;;;;6304216;22;20387;-61
2021/05/25 00:06:01;;;;;;;2.30;2.10;;;9.30;99.90;;;;;;6309064;22;20415;-61
2021/05/25 00:08:29;;;;;;;2.50;2.30;;;9.30;99.90;;;;;;6309374;22;20759;-61
2021/05/25 00:10:55;;;;;;;2.47;1.77;;;9.30;99.90;;;;;;6308638;22;20420;-60
2021/05/25 00:13:22;;;;;;;2.47;2.07;;;9.20;99.90;;;;;;6309238;22;20787;-60
2021/05/25 00:15:53;;;;;;;3.10;1.70;;;9.30;99.90;;;;;;6308932;22;20420;-60
2021/05/25 00:18:20;;;;;;;4.10;2.30;;;9.20;99.90;;;;;;6309401;22;20423;-60
2021/05/25 00:20:47;;;;;;;2.43;2.23;;;9.20;99.90;;;;;;6309313;22;20419;-60
2021/05/25 00:23:14;;;;;;;2.53;2.13;;;9.10;99.90;;;;;;6310476;22;20394;-60
2021/05/25 00:25:41;;;;;;;2.17;1.97;;;9.10;99.90;;;;;;6310019;22;20423;-60
2021/05/25 00:28:08;;;;;;;2.40;2.13;;;9.10;99.90;;;;;;6310961;22;20415;-60
2021/05/25 00:30:35;;;;;;;3.87;2.30;;;9.00;99.90;;;;;;6310390;22;20860;-61
2021/05/25 00:33:01;;;;;;;2.80;1.93;;;9.00;99.90;;;;;;6311541;22;20444;-61
2021/05/25 00:35:29;;;;;;;3.10;1.83;;;9.00;99.90;;;;;;6311155;22;20416;-61
2021/05/25 00:37:55;;;;;;;2.10;1.97;;;8.90;99.90;;;;;;6311272;22;20532;-61
2021/05/25 00:40:25;;;;;;;3.13;2.33;;;9.00;99.90;;;;;;6310469;22;20420;-61
2021/05/25 00:42:53;;;;;;;2.30;1.93;;;9.00;99.90;;;;;;6311362;22;20848;-61
2021/05/25 00:45:19;;;;;;;3.47;2.17;;;9.00;99.90;;;;;;6311425;22;20419;-61
2021/05/25 00:47:46;;;;;;;2.17;1.97;;;9.00;99.90;;;;;;6310756;22;20419;-61
2021/05/25 00:50:17;;;;;;;2.30;1.90;;;9.00;99.90;;;;;;6310421;22;20456;-61
2021/05/25 00:52:46;;;;;;;2.40;2.20;;;8.90;99.90;;;;;;6311145;22;20447;-61
2021/05/25 00:55:15;;;;;;;3.20;2.30;;;8.90;99.90;;;;;;6311090;22;20394;-61
2021/05/25 00:57:43;;;;;;;2.33;2.00;;;8.90;99.90;;;;;;6310982;22;20420;-61
2021/05/25 01:00:12;;;;;;;4.90;2.43;;;8.90;99.90;;;;;;6310250;22;20444;-61
2021/05/25 01:02:39;;;;;;;2.93;2.10;;;8.90;99.90;;;;;;6309843;22;20412;-61
2021/05/25 01:05:08;;;;;;;3.30;2.80;;;8.90;99.90;;;;;;6307879;22;20416;-61
2021/05/25 01:07:35;;;;;;;2.80;2.30;;;8.90;99.90;;;;;;6309585;22;20416;-61
2021/05/25 01:10:02;;;;;;;2.27;2.07;;;8.90;99.90;;;;;;6310439;22;20844;-61
2021/05/25 01:12:31;;;;;;;3.90;2.60;;;8.80;99.90;;;;;;6310732;22;20737;-61
2021/05/25 01:14:59;;;;;;;2.40;2.20;;;8.80;99.90;;;;;;6310249;22;20426;-61
2021/05/25 01:17:27;;;;;;;3.83;2.40;;;8.80;99.90;;;;;;6309908;22;20514;-61
2021/05/25 01:19:53;;;;;;;2.43;2.10;;;8.80;99.90;;;;;;6310107;22;20888;-61
2021/05/25 01:22:21;;;;;;;3.03;2.23;;;8.80;99.90;;;;;;6310135;22;20423;-61
2021/05/25 01:24:50;;;;;;;3.63;1.97;;;8.80;99.90;;;;;;6310544;22;20421;-61
2021/05/25 01:27:17;;;;;;;2.90;1.77;;;8.80;99.90;;;;;;6310905;22;20724;-61
2021/05/25 01:29:43;;;;;;;2.67;1.90;;;8.70;99.90;;;;;;6310434;22;20463;-61
2021/05/25 01:32:10;;;;;;;2.87;2.17;;;8.70;99.90;;;;;;6309059;22;20416;-61
2021/05/25 01:34:37;;;;;;;2.10;1.90;;;8.70;99.90;;;;;;6310797;22;20423;-61
2021/05/25 01:37:07;;;;;;;2.10;1.90;;;8.60;99.90;;;;;;6310514;22;20475;-62
2021/05/25 01:39:34;;;;;;;2.30;1.80;;;8.60;99.90;;;;;;6310171;22;20726;-61
2021/05/25 01:42:01;;;;;;;2.23;1.83;;;8.60;99.90;;;;;;6309532;22;20416;-61
2021/05/25 01:44:27;;;;;;;2.30;2.10;;;8.60;99.90;;;;;;6310318;22;20404;-61
2021/05/25 01:46:54;;;;;;;4.13;1.93;;;8.60;99.90;;;;;;6310371;22;20420;-61
2021/05/25 01:49:20;;;;;;;4.40;1.70;;;8.60;99.90;;;;;;6309558;22;20423;-61
2021/05/25 01:51:48;;;;;;;1.93;1.83;;;8.60;99.90;;;;;;6310255;22;20836;-61
2021/05/25 01:54:15;;;;;;;2.03;1.90;;;8.60;99.90;;;;;;6309907;22;20455;-61
2021/05/25 01:56:42;;;;;;;2.80;2.27;;;8.60;99.90;;;;;;6310525;22;20733;-61
2021/05/25 01:59:10;;;;;;;1.70;1.47;;;8.60;99.90;;;;;;6310083;22;20466;-61
2021/05/25 02:01:39;;;;;;;1.90;1.80;;;8.60;99.90;;;;;;6309028;22;20906;-61
2021/05/25 02:04:06;;;;;;;3.30;1.60;;;8.60;99.90;;;;;;6305296;22;20448;-61
2021/05/25 02:06:33;;;;;;;1.90;1.70;;;8.70;99.90;;;;;;6309863;22;20774;-61
2021/05/25 02:08:59;;;;;;;2.50;2.30;;;8.60;99.90;;;;;;6309710;22;20731;-61
2021/05/25 02:11:26;;;;;;;1.77;1.67;;;8.70;99.90;;;;;;6309992;22;20395;-61
2021/05/25 02:13:53;;;;;;;3.70;2.20;;;8.70;99.90;;;;;;6310017;22;20505;-60
2021/05/25 02:16:20;;;;;;;3.63;1.60;;;8.70;99.90;;;;;;6308317;22;20412;-60
2021/05/25 02:18:48;;;;;;;1.87;1.67;;;8.60;99.90;;;;;;6309692;22;20760;-61
2021/05/25 02:21:16;;;;;;;2.30;1.70;;;8.60;99.90;;;;;;6309747;22;20424;-60
2021/05/25 02:23:43;;;;;;;2.80;2.30;;;8.60;99.90;;;;;;6309629;22;20387;-60
2021/05/25 02:26:10;;;;;;;3.20;1.83;;;8.60;99.90;;;;;;6309342;22;20721;-61
2021/05/25 02:28:37;;;;;;;2.27;1.80;;;8.60;99.90;;;;;;6309682;22;20420;-60
2021/05/25 02:31:05;;;;;;;4.07;2.40;;;8.60;99.90;;;;;;6309272;22;20518;-60
2021/05/25 02:33:32;;;;;;;3.27;2.10;;;8.50;99.90;;;;;;6310124;22;20892;-60
2021/05/25 02:36:03;;;;;;;2.73;2.00;;;8.50;99.90;;;;;;6309214;22;20469;-60
2021/05/25 02:38:31;;;;;;;2.87;2.07;;;8.50;99.90;;;;;;6309681;22;20485;-60
2021/05/25 02:40:59;;;;;;;2.57;2.37;;;8.40;99.90;;;;;;6309675;22;20420;-60
2021/05/25 02:43:27;;;;;;;4.53;2.53;;;8.40;99.90;;;;;;6309466;22;20416;-60
2021/05/25 02:45:54;;;;;;;3.50;2.60;;;8.40;99.90;;;;;;6309158;22;20427;-60
2021/05/25 02:48:22;;;;;;;2.97;2.30;;;8.40;99.90;;;;;;6309233;22;20444;-60
2021/05/25 02:50:50;;;;;;;2.60;2.40;;;8.30;99.90;;;;;;6310052;22;20428;-60
2021/05/25 02:53:18;;;;;;;2.43;1.90;;;8.30;99.90;;;;;;6309338;22;20774;-60
2021/05/25 02:55:45;;;;;;;2.10;1.90;;;8.30;99.90;;;;;;6308667;22;20417;-60
2021/05/25 02:58:13;;;;;;;2.50;2.30;;;8.20;99.90;;;;;;6309798;22;20393;-60
2021/05/25 03:00:41;;;;;;;2.23;1.87;;;8.20;99.90;;;;;;6308054;22;20892;-61
2021/05/25 03:03:08;;;;;;;2.30;2.03;;;8.30;99.90;;;;;;6306203;22;20459;-61
2021/05/25 03:05:37;;;;;;;2.90;1.70;;;8.20;99.90;;;;;;6307762;22;20711;-61
2021/05/25 03:41:39;;;;;;;7.63;5.30;;;7.60;99.90;;;;;;6295752;22;20463;-62
2021/05/25 03:44:12;;;;;;;5.13;4.20;;;7.60;99.90;;;;;;6309779;22;20469;-62
2021/05/25 03:46:39;;;;;;;3.93;3.20;;;7.60;99.90;;;;;;6309007;22;20422;-62
2021/05/25 03:49:06;;;;;;;3.43;3.13;;;7.60;99.90;;;;;;6309818;22;20848;-62
2021/05/25 03:51:35;;;;;;;2.73;2.37;;;7.60;99.90;;;;;;6308420;22;20427;-62
2021/05/25 03:54:08;;;;;;;3.60;2.90;;;7.60;99.90;;;;;;6308717;22;20451;-62
2021/05/25 03:56:46;;;;;;;12.20;9.90;;;7.60;99.90;;;;;;6308846;22;20439;-62
2021/05/25 04:37:01;;;;;;;5.10;2.50;;;7.40;99.90;;;;;;6296532;22;20914;-63
2021/05/25 05:13:55;;;;;;;8.87;3.07;;;7.50;99.90;;;;;;6307150;22;20448;-62
2021/05/25 05:50:49;;;;;;;4.73;3.47;;;7.90;99.90;;;;;;6298775;22;20452;-62
2021/05/25 07:39:01;;;;;;;2.20;2.00;;;8.30;99.90;;;;;;6247385;22;1198428;-63
2021/05/25 08:15:38;;;;;;;3.20;2.40;;;8.50;99.90;;;;;;6299586;22;20555;-63
2021/05/25 08:18:10;;;;;;;4.43;3.90;;;8.60;99.90;;;;;;6308409;22;20415;-63
2021/05/25 08:20:38;;;;;;;5.37;4.00;;;8.40;99.90;;;;;;6310181;22;20478;-63
2021/05/25 08:23:07;;;;;;;2.93;2.63;;;8.50;99.90;;;;;;6309498;22;20846;-63
2021/05/25 08:25:33;;;;;;;2.43;2.20;;;8.70;99.90;;;;;;6308808;22;20416;-63
2021/05/25 08:28:02;;;;;;;2.90;2.70;;;9.00;99.90;;;;;;6310045;22;20412;-63
2021/05/25 08:30:31;;;;;;;2.20;2.00;;;9.80;99.90;;;;;;6308394;22;20726;-63
2021/05/25 08:33:01;;;;;;;2.43;2.23;;;10.70;99.90;;;;;;6309351;22;20888;-62
2021/05/25 08:35:30;;;;;;;2.23;1.90;;;10.90;99.90;;;;;;6308863;22;20423;-62
2021/05/25 08:37:59;;;;;;;2.53;1.80;;;10.90;99.90;;;;;;6309304;22;20443;-62
2021/05/25 08:40:27;;;;;;;3.20;2.90;;;10.60;99.90;;;;;;6308941;22;20477;-62
2021/05/25 08:42:53;;;;;;;2.03;1.80;;;10.50;99.90;;;;;;6308655;22;20754;-63
2021/05/25 08:45:22;;;;;;;2.53;2.07;;;10.10;99.90;;;;;;6309820;22;20427;-63
2021/05/25 08:47:50;;;;;;;2.20;2.10;;;9.90;99.90;;;;;;6310943;22;20473;-63
2021/05/25 08:50:19;;;;;;;2.80;1.40;;;9.80;99.90;;;;;;6310613;22;20840;-63
2021/05/25 09:31:54;;;;;;;4.87;4.33;;;10.20;99.90;;;;;;6295234;22;20459;-64
2021/05/25 09:34:23;;;;;;;4.10;3.80;;;10.60;99.90;;;;;;6310499;22;20550;-64
2021/05/25 09:37:03;;;;;;;3.90;3.60;;;10.90;99.90;;;;;;6309068;22;20431;-64
2021/05/25 09:39:31;;;;;;;3.67;3.43;;;11.00;99.90;;;;;;6309621;22;20420;-64
2021/05/25 09:42:02;;;;;;;4.57;4.27;;;11.20;99.90;;;;;;6309501;22;20420;-64
2021/05/25 09:44:29;;;;;;;4.70;4.30;;;11.10;99.90;;;;;;6310016;22;20387;-64
2021/05/25 09:47:02;;;;;;;5.33;4.83;;;11.00;99.90;;;;;;6309346;22;20470;-64
2021/05/25 09:49:28;;;;;;;5.13;4.47;;;11.40;99.90;;;;;;6310072;22;20424;-63
2021/05/25 09:52:04;;;;;;;4.73;4.40;;;11.80;99.90;;;;;;6309685;22;20424;-63
2021/05/25 09:54:31;;;;;;;4.87;3.90;;;11.80;99.90;;;;;;6310311;22;20448;-63
2021/05/25 09:56:58;;;;;;;4.13;3.73;;;11.90;99.90;;;;;;6309218;22;20423;-63
2021/05/25 09:59:30;;;;;;;8.60;4.73;;;12.10;99.90;;;;;;6309960;22;20891;-62
2021/05/25 10:01:57;;;;;;;7.10;4.40;;;12.00;99.90;;;;;;6308918;22;20703;-62
2021/05/25 10:04:25;;;;;;;4.53;4.23;;;12.50;99.90;;;;;;6305672;22;20421;-61
2021/05/25 10:06:52;;;;;;;4.33;3.97;;;13.00;99.90;;;;;;6309852;22;20412;-62
2021/05/25 10:09:20;;;;;;;4.20;3.67;;;13.60;99.90;;;;;;6308045;22;21106;-62
2021/05/25 10:11:48;;;;;;;3.53;3.10;;;14.40;99.90;;;;;;6308910;22;20480;-62
2021/05/25 10:14:19;;;;;;;4.20;3.20;;;14.80;99.90;;;;;;6308791;22;20422;-62
2021/05/25 10:16:48;;;;;;;3.10;2.80;;;14.80;99.90;;;;;;6309329;22;20478;-63
2021/05/25 10:19:27;;;;;;;3.20;2.90;;;14.50;99.90;;;;;;6310317;22;20391;-63
2021/05/25 10:21:55;;;;;;;4.47;3.03;;;14.00;99.90;;;;;;6310259;22;20492;-62
2021/05/25 11:02:05;;;;;;;6.50;4.20;;;10.10;99.90;;;;;;6296922;22;20453;-64
2021/05/25 11:04:37;;;;;;;5.03;3.50;;;10.80;99.90;;;;;;6305231;22;20448;-63
2021/05/25 11:07:36;;;;;;;5.60;3.67;;;11.20;99.90;;;;;;6309818;22;20757;-64
2021/05/25 11:10:32;;;;;;;4.73;4.10;;;11.40;99.90;;;;;;6308842;22;20455;-64
2021/05/25 11:13:21;;;;;;;7.13;3.83;;;11.30;99.90;;;;;;6309079;22;20419;-65
2021/05/25 11:16:09;;;;;;;7.17;4.97;;;11.20;99.90;;;;;;6308888;22;20395;-64
2021/05/25 11:18:41;;;;;;;6.20;4.63;;;10.90;99.90;;;;;;6309221;22;20859;-64
2021/05/25 11:21:22;;;;;;;6.67;6.07;;;10.90;99.90;;;;;;6309479;22;20416;-64
2021/05/25 12:00:45;;;;;;;6.70;3.73;;;11.00;99.90;;;;;;6291491;22;20521;-64
2021/05/25 12:03:14;;;;;;;3.57;3.20;;;11.40;99.90;;;;;;6306692;22;20723;-63
2021/05/25 12:05:42;;;;;;;11.00;4.10;;;11.70;99.90;;;;;;6307436;22;20420;-64
2021/05/25 12:08:12;;;;;;;4.33;3.50;;;12.20;99.90;;;;;;6308359;22;20430;-64
2021/05/25 12:10:41;;;;;;;5.00;4.40;;;12.40;99.90;;;;;;6308558;22;20416;-64
2021/05/25 12:13:12;;;;;;;4.40;4.00;;;12.50;99.90;;;;;;6307477;22;20448;-64
2021/05/25 12:15:40;;;;;;;7.07;4.77;;;12.70;99.90;;;;;;6307864;22;20471;-64
2021/05/25 12:18:13;;;;;;;8.37;5.17;;;12.60;99.90;;;;;;6308475;22;20523;-63
2021/05/25 12:20:45;;;;;;;6.50;4.77;;;12.40;99.90;;;;;;6310858;22;20447;-63
2021/05/25 12:23:15;;;;;;;9.67;5.30;;;12.90;99.90;;;;;;6310139;22;20536;-62
2021/05/25 12:25:42;;;;;;;9.30;5.50;;;13.60;99.90;;;;;;6310672;22;20922;-62
2021/05/25 12:28:13;;;;;;;9.63;5.40;;;14.10;99.90;;;;;;6311340;22;20423;-61
2021/05/25 12:30:43;;;;;;;5.30;4.90;;;14.70;99.90;;;;;;6309914;22;20412;-61
2021/05/25 13:11:59;;;;;;;3.30;3.00;;;10.10;99.90;;;;;;6297151;22;20424;31
2021/05/25 13:14:26;;;;;;;2.90;2.60;;;10.10;99.90;;;;;;6248415;23;20910;-64
2021/05/25 13:16:57;;;;;;;3.20;2.90;;;10.10;99.90;;;;;;6249208;23;20440;-64
2021/05/25 13:19:34;;;;;;;5.87;3.10;;;10.20;99.90;;;;;;6249332;23;20433;-64
2021/05/25 13:22:00;;;;;;;5.33;3.33;;;10.10;99.90;;;;;;6248508;23;20507;-63
2021/05/25 13:24:27;;;;;;;4.10;2.60;;;10.20;99.90;;;;;;6248474;23;20516;-64
2021/05/25 13:26:53;;;;;;;3.30;3.00;;;10.20;99.90;;;;;;6248156;23;20428;-64
2021/05/25 13:29:26;;;;;;;4.90;3.30;;;10.30;99.90;;;;;;6247519;23;20870;-64
2021/05/25 13:31:53;;;;;;;3.30;2.90;;;10.60;99.90;;;;;;6249131;23;20445;-64
2021/05/25 13:34:23;;;;;;;3.13;2.83;;;10.40;99.90;;;;;;6248505;23;20472;-64
2021/05/25 13:36:51;;;;;;;5.43;2.90;;;10.30;99.90;;;;;;6248061;23;20426;-64
2021/05/25 13:39:20;;;;;;;3.17;2.87;;;10.20;99.90;;;;;;6248801;23;20418;-64
2021/05/25 13:41:48;;;;;;;2.80;2.60;;;10.40;99.90;;;;;;6249006;23;20425;-64
2021/05/25 13:44:17;;;;;;;3.47;2.87;;;10.30;99.90;;;;;;6247995;23;20420;-63
2021/05/25 13:46:44;;;;;;;3.30;2.90;;;10.40;99.90;;;;;;6248531;23;20476;-64
2021/05/25 13:49:13;;;;;;;3.30;3.00;;;10.60;99.90;;;;;;6248612;23;20404;-64
2021/05/25 13:51:42;;;;;;;2.73;2.53;;;10.80;99.90;;;;;;6248378;23;20529;-63
2021/05/25 13:54:08;;;;;;;3.63;2.70;;;11.60;99.90;;;;;;6248496;23;20536;-64
2021/05/25 13:56:38;;;;;;;3.63;2.60;;;12.50;99.90;;;;;;6248406;23;20871;-63
2021/05/25 13:59:12;;;;;;;2.73;2.53;;;12.70;99.90;;;;;;6247730;23;20422;-64
2021/05/25 14:01:39;;;;;;;2.80;2.30;;;12.30;99.90;;;;;;6249294;23;20418;-63
2021/05/25 14:04:10;;;;;;;3.00;2.80;;;12.20;99.90;;;;;;6243693;23;20521;-63
2021/05/25 14:06:37;;;;;;;3.97;2.20;;;12.00;99.90;;;;;;6248034;23;20422;-63
2021/05/25 14:09:05;;;;;;;4.80;2.13;;;12.00;99.90;;;;;;6248367;23;20426;-63
2021/05/25 14:11:35;;;;;;;4.93;2.63;;;11.90;99.90;;;;;;6249023;23;20429;-62
2021/05/25 14:14:04;;;;;;;2.50;2.07;;;12.00;99.90;;;;;;6247547;23;20457;-63
2021/05/25 15:30:09;;;;;;;4.80;3.60;;;11.50;99.90;;;;;;6306027;22;20458;-65
2021/05/25 16:05:00;;;;;;;4.37;3.60;;;10.80;99.90;;;;;;6300955;22;20450;-65
2021/05/25 16:07:28;;;;;;;3.40;2.80;;;10.80;99.90;;;;;;6309597;22;20426;-65
2021/05/25 16:10:01;;;;;;;4.50;3.00;;;10.70;99.90;;;;;;6310586;22;20423;-65
2021/05/25 16:12:27;;;;;;;4.37;3.27;;;10.80;99.90;;;;;;6311959;22;20439;-65
2021/05/25 16:14:57;;;;;;;4.73;2.97;;;10.80;99.90;;;;;;6311743;22;20444;-65
2021/05/25 16:17:24;;;;;;;3.13;2.87;;;10.90;99.90;;;;;;6310565;22;20416;-65
2021/05/25 16:19:51;;;;;;;3.53;3.20;;;11.00;99.90;;;;;;6312047;22;20391;-65
2021/05/25 16:22:20;;;;;;;3.87;2.80;;;11.10;99.90;;;;;;6311040;22;20427;-65
2021/05/25 16:24:47;;;;;;;6.73;2.40;;;11.00;99.90;;;;;;6311139;22;20412;-65
2021/05/25 16:27:14;;;;;;;3.23;2.70;;;11.00;99.90;;;;;;6311301;22;20424;-65
2021/05/25 16:29:41;;;;;;;4.70;3.23;;;11.00;99.90;;;;;;6311229;22;20467;-65
2021/05/25 16:32:08;;;;;;;3.83;3.43;;;11.00;99.90;;;;;;6311136;22;20521;-65
2021/05/25 16:34:36;;;;;;;3.63;3.10;;;10.90;99.90;;;;;;6311703;22;20448;-65
2021/05/25 16:37:03;;;;;;;5.17;2.83;;;10.80;99.90;;;;;;6311460;22;20420;-65
2021/05/25 16:39:30;;;;;;;4.70;3.30;;;10.70;99.90;;;;;;6310292;22;20420;-65
2021/05/25 17:57:12;;;;;;;7.57;4.00;;;9.50;99.90;;;;;;6307422;22;20452;-62
2021/05/25 17:59:38;;;;;;;3.93;3.53;;;9.60;99.90;;;;;;6309963;22;20408;-62
2021/05/25 18:02:05;;;;;;;6.00;4.03;;;9.60;99.90;;;;;;6310142;22;20840;-62
2021/05/25 18:04:35;;;;;;;5.37;3.80;;;9.60;99.90;;;;;;6305286;22;20420;-62
2021/05/25 18:07:03;;;;;;;7.53;6.00;;;9.60;99.90;;;;;;6310618;22;20515;-61
2021/05/25 18:09:31;;;;;;;4.60;4.20;;;9.70;99.90;;;;;;6310918;22;20753;-62
2021/05/25 18:11:59;;;;;;;7.30;6.50;;;9.70;99.90;;;;;;6310562;22;20420;-61
2021/05/25 18:14:28;;;;;;;4.57;4.13;;;9.70;99.90;;;;;;6309905;22;20739;-62
2021/05/25 18:16:57;;;;;;;6.03;4.20;;;9.70;99.90;;;;;;6310115;22;20787;-61
2021/05/25 18:19:26;;;;;;;5.23;3.90;;;9.60;99.90;;;;;;6310535;22;20419;-61
2021/05/25 18:21:55;;;;;;;5.50;5.00;;;9.60;99.90;;;;;;6309990;22;20522;-61
2021/05/25 18:24:22;;;;;;;5.53;3.90;;;9.60;99.90;;;;;;6310060;22;20556;-62
2021/05/25 18:26:49;;;;;;;4.97;3.67;;;9.60;99.90;;;;;;6309753;22;20420;-61
2021/05/25 18:29:16;;;;;;;7.43;4.43;;;9.50;99.90;;;;;;6309939;22;20421;-61
2021/05/25 18:31:47;;;;;;;5.10;4.23;;;9.50;99.90;;;;;;6310345;22;20420;-61
2021/05/25 18:34:17;;;;;;;5.80;4.20;;;9.50;99.90;;;;;;6310710;22;20459;-61
2021/05/25 18:36:54;;;;;;;5.23;4.83;;;9.50;99.90;;;;;;6310474;22;20427;-61
2021/05/25 18:39:47;;;;;;;4.83;4.20;;;9.50;99.90;;;;;;6310158;22;20420;-62
2021/05/25 18:42:13;;;;;;;4.77;4.37;;;9.40;99.90;;;;;;6310653;22;20522;-61
2021/05/25 18:44:42;;;;;;;5.70;5.20;;;9.50;99.90;;;;;;6309805;22;20887;-61
2021/05/25 18:47:10;;;;;;;8.20;6.10;;;9.50;99.90;;;;;;6309871;22;20509;-62
2021/05/25 18:49:38;;;;;;;6.77;5.33;;;9.60;99.90;;;;;;6310206;22;20420;-62
2021/05/25 18:52:13;;;;;;;8.63;5.50;;;9.60;99.90;;;;;;6310657;22;20840;-62
2021/05/25 18:54:40;;;;;;;5.83;5.00;;;9.60;99.90;;;;;;6309775;22;20448;-62
2021/05/25 18:57:13;;;;;;;5.63;5.03;;;9.60;99.90;;;;;;6309746;22;20491;-62
2021/05/25 18:59:39;;;;;;;10.90;4.90;;;9.50;99.90;;;;;;6309330;22;20429;-62
2021/05/25 19:02:10;;;;;;;5.40;4.90;;;9.50;99.90;;;;;;6310279;22;20754;-62
2021/05/25 19:04:39;;;;;;;6.53;5.30;;;9.40;99.90;;;;;;6306736;22;20887;-62
2021/05/25 19:07:06;;;;;;;4.77;4.33;;;9.40;99.90;;;;;;6310230;22;20514;-62
2021/05/25 19:09:36;;;;;;;11.63;5.10;;;9.40;99.90;;;;;;6309583;22;20400;-62
2021/05/25 19:12:04;;;;;;;8.47;5.20;;;9.40;99.90;;;;;;6309911;22;20481;-62
2021/05/25 19:14:30;;;;;;;5.20;4.70;;;9.30;99.90;;;;;;6309299;22;20448;-64
2021/05/25 19:16:57;;;;;;;5.73;5.20;;;9.30;99.90;;;;;;6308733;22;20424;-64
2021/05/25 19:19:26;;;;;;;6.47;5.87;;;9.30;99.90;;;;;;6309388;22;20416;-64
2021/05/25 19:22:00;;;;;;;6.10;5.60;;;9.30;99.90;;;;;;6310579;22;20420;-64
2021/05/25 19:24:33;;;;;;;11.27;6.07;;;9.20;99.90;;;;;;6309482;22;20515;-64
2021/05/25 19:27:05;;;;;;;8.70;7.90;;;9.20;99.90;;;;;;6309062;22;20413;-64
2021/05/25 19:29:34;;;;;;;13.10;8.00;;;9.10;99.90;;;;;;6308847;22;20420;-64
2021/05/25 19:32:01;;;;;;;10.23;8.80;;;9.10;99.90;;;;;;6309573;22;20841;-64
2021/05/25 19:34:27;;;;;;;8.67;7.77;;;9.10;99.90;;;;;;6309094;22;20448;-64
2021/05/25 19:36:54;;;;;;;9.20;8.40;;;9.10;99.90;;;;;;6309711;22;20416;-64
2021/05/25 19:39:23;;;;;;;11.00;9.90;;;9.00;99.90;;;;;;6308940;22;20416;-64
2021/05/25 19:41:55;;;;;;;11.00;9.90;;;9.00;99.90;;;;;;6309851;22;20420;-64
2021/05/25 19:44:25;;;;;;;12.20;10.80;;;9.00;99.90;;;;;;6309410;22;20490;-64
2021/05/25 19:46:54;;;;;;;14.77;9.93;;;9.10;99.90;;;;;;6309932;22;20690;-64
2021/05/25 19:49:23;;;;;;;12.30;11.10;;;9.10;99.90;;;;;;6309676;22;20860;-64
2021/05/25 19:51:50;;;;;;;12.87;11.53;;;9.00;99.90;;;;;;6308298;22;20391;-64
2021/05/25 19:54:21;;;;;;;12.50;11.30;;;9.00;99.90;;;;;;6310149;22;20448;-63
2021/05/25 19:56:48;;;;;;;15.60;10.77;;;9.00;99.90;;;;;;6309436;22;20484;-62
2021/05/25 20:39:19;;;;;;;9.80;8.87;;;9.00;99.90;;;;;;6309397;22;20473;-63
2021/05/25 20:41:48;;;;;;;11.43;10.23;;;8.90;99.90;;;;;;6311139;22;20407;-63
2021/05/25 20:44:14;;;;;;;11.80;9.20;;;8.90;99.90;;;;;;6310763;22;20720;-63
2021/05/25 20:46:43;;;;;;;12.63;9.67;;;8.90;99.90;;;;;;6311388;22;20867;-63
2021/05/25 20:49:12;;;;;;;11.67;9.63;;;8.90;99.90;;;;;;6309811;22;20408;-63
2021/05/25 20:51:41;;;;;;;11.07;9.80;;;8.80;99.90;;;;;;6310674;22;20389;-63
2021/05/25 20:54:08;;;;;;;11.50;10.40;;;8.80;99.90;;;;;;6309393;22;20447;-63
2021/05/25 20:56:35;;;;;;;12.50;10.80;;;8.90;99.90;;;;;;6311163;22;20420;-63
2021/05/25 20:59:01;;;;;;;17.47;10.77;;;8.90;99.90;;;;;;6311072;22;20416;-63
2021/05/25 21:01:28;;;;;;;12.70;10.67;;;8.90;99.90;;;;;;6311028;22;20519;-63
2021/05/25 21:03:57;;;;;;;14.47;11.77;;;9.00;99.90;;;;;;6305664;22;20421;-63
2021/05/25 21:06:25;;;;;;;12.13;10.60;;;8.90;99.90;;;;;;6311274;22;20428;-63
2021/05/25 21:08:51;;;;;;;10.90;9.90;;;8.90;99.90;;;;;;6311260;22;20903;-63
2021/05/25 21:11:20;;;;;;;13.23;11.63;;;8.90;99.90;;;;;;6310598;22;20482;-63
2021/05/25 21:13:47;;;;;;;17.90;11.93;;;8.90;99.90;;;;;;6309869;22;20481;-63
2021/05/25 21:16:15;;;;;;;11.83;10.30;;;8.90;99.90;;;;;;6310379;22;20394;-63
2021/05/25 21:18:41;;;;;;;13.43;11.00;;;8.90;99.90;;;;;;6310845;22;20420;-63
2021/05/25 21:21:08;;;;;;;15.40;11.40;;;8.90;99.90;;;;;;6310418;22;20423;-63
2021/05/25 21:23:35;;;;;;;17.20;13.37;;;8.90;99.90;;;;;;6310640;22;20432;-63
2021/05/25 21:26:04;;;;;;;15.60;11.83;;;8.90;99.90;;;;;;6310766;22;20713;-63
2021/05/25 21:28:37;;;;;;;13.37;11.90;;;8.90;99.90;;;;;;6309869;22;20416;-63
2021/05/25 21:31:04;;;;;;;13.27;11.20;;;8.90;99.90;;;;;;6309822;22;20510;-63
2021/05/25 21:33:31;;;;;;;13.40;12.00;;;8.90;99.90;;;;;;6309323;22;20447;-63
2021/05/25 21:36:00;;;;;;;12.20;10.30;;;9.00;99.90;;;;;;6310552;22;20844;-63
2021/05/25 21:38:27;;;;;;;12.80;10.13;;;8.90;99.90;;;;;;6309915;22;20696;-63
2021/05/25 21:40:54;;;;;;;12.20;10.87;;;8.90;99.90;;;;;;6309989;22;20416;-63
2021/05/25 21:43:24;;;;;;;13.20;11.90;;;8.90;99.90;;;;;;6309633;22;20862;-63
2021/05/25 21:45:50;;;;;;;13.50;10.40;;;8.90;99.90;;;;;;6309705;22;20416;-63
2021/05/25 21:48:17;;;;;;;11.43;10.20;;;8.90;99.90;;;;;;6310379;22;20854;-63
2021/05/25 21:50:43;;;;;;;12.57;10.90;;;8.90;99.90;;;;;;6309822;22;20425;-63
2021/05/25 21:53:10;;;;;;;13.57;11.60;;;8.90;99.90;;;;;;6310767;22;20681;-63
2021/05/25 21:55:37;;;;;;;12.33;11.00;;;8.90;99.90;;;;;;6309202;22;20452;-63
2021/05/25 22:35:30;;;;;;;7.37;5.93;;;8.80;99.90;;;;;;6295439;22;20284;-62
2021/05/25 22:37:59;;;;;;;15.23;6.23;;;8.70;99.90;;;;;;6279255;22;20460;-65
2021/05/25 22:40:26;;;;;;;6.70;5.40;;;8.80;99.90;;;;;;6308427;22;20446;-64
2021/05/25 22:42:52;;;;;;;6.83;5.87;;;8.80;99.90;;;;;;6310310;22;20689;-64
2021/05/25 22:45:19;;;;;;;9.57;5.00;;;8.80;99.90;;;;;;6309121;22;20408;-64
2021/05/25 22:47:49;;;;;;;6.23;5.63;;;8.80;99.90;;;;;;6309978;22;20416;-64
2021/05/25 22:50:16;;;;;;;8.87;6.50;;;8.80;99.90;;;;;;6308886;22;20712;-64
2021/05/25 22:52:44;;;;;;;10.30;5.77;;;8.80;99.90;;;;;;6310345;22;20419;-64
2021/05/25 22:55:16;;;;;;;6.83;5.27;;;8.80;99.90;;;;;;6310172;22;20444;-64
2021/05/25 22:57:48;;;;;;;9.10;5.93;;;8.90;99.90;;;;;;6309181;22;20693;-64
2021/05/25 23:00:17;;;;;;;7.53;6.77;;;8.80;99.90;;;;;;6309966;22;20494;-65
2021/05/25 23:02:44;;;;;;;7.77;6.47;;;8.80;99.90;;;;;;6305309;22;20424;-64
2021/05/25 23:05:14;;;;;;;8.80;6.20;;;8.70;99.90;;;;;;6307438;22;20419;-63
2021/05/25 23:07:42;;;;;;;7.13;6.53;;;8.70;99.90;;;;;;6309361;22;20488;-63
2021/05/25 23:10:12;;;;;;;9.40;8.50;;;8.80;99.90;;;;;;6309745;22;20480;-63
2021/05/25 23:51:15;;;;;;;9.90;8.73;;;8.50;99.90;;;;;;6304964;22;20908;-63
2021/05/25 23:53:42;;;;;;;10.37;9.30;;;8.50;99.90;;;;;;6310318;22;20756;-63
2021/05/25 23:56:11;;;;;;;11.93;9.30;;;8.40;99.90;;;;;;6309768;22;20423;-63
2021/05/25 23:58:38;;;;;;;11.90;10.60;;;8.50;99.90;;;;;;6309217;22;20420;-62
